createdAt,value
2018-09-28T00:00:00.060Z,6.60
2018-09-28T00:02:28.517Z,6.60
2018-09-28T00:04:56.959Z,6.70
2018-09-28T00:07:25.411Z,6.70
2018-09-28T00:09:53.866Z,6.80
2018-09-28T00:12:22.317Z,6.80
2018-09-28T00:14:50.766Z,6.80
2018-09-28T00:17:19.253Z,6.70
2018-09-28T00:19:47.706Z,6.70
2018-09-28T00:22:16.163Z,6.60
2018-09-28T00:24:44.683Z,6.50
2018-09-28T00:27:13.142Z,6.50
2018-09-28T00:29:41.674Z,6.50
2018-09-28T00:32:10.130Z,6.50
2018-09-28T00:34:38.589Z,6.40
2018-09-28T00:37:07.056Z,6.40
2018-09-28T00:39:35.491Z,6.30
2018-09-28T00:42:03.950Z,6.40
2018-09-28T00:44:32.438Z,6.40
2018-09-28T00:47:00.886Z,6.50
2018-09-28T00:49:29.355Z,6.60
2018-09-28T00:52:08.522Z,6.70
2018-09-28T00:54:36.974Z,6.90
2018-09-28T00:57:05.463Z,6.90
2018-09-28T00:59:33.911Z,6.90
2018-09-28T01:02:02.378Z,6.70
2018-09-28T01:04:30.893Z,6.70
2018-09-28T01:06:59.382Z,6.60
2018-09-28T01:09:27.818Z,6.60
2018-09-28T01:11:56.274Z,6.50
2018-09-28T01:14:24.734Z,6.50
2018-09-28T01:16:53.206Z,6.40
2018-09-28T01:19:21.662Z,6.40
2018-09-28T01:21:50.222Z,6.30
2018-09-28T01:24:18.666Z,6.20
2018-09-28T01:26:47.110Z,6.20
2018-09-28T01:29:15.582Z,6.10
2018-09-28T01:31:44.060Z,6.20
2018-09-28T01:34:12.503Z,6.10
2018-09-28T01:36:40.982Z,6.20
2018-09-28T01:39:10.114Z,6.10
2018-09-28T01:41:38.582Z,6.10
2018-09-28T01:44:07.054Z,6.10
2018-09-28T01:46:35.506Z,6.10
2018-09-28T01:49:03.953Z,6.10
2018-09-28T01:51:32.438Z,6.10
2018-09-28T01:54:00.883Z,6.00
2018-09-28T01:56:29.370Z,6.00
2018-09-28T01:58:57.843Z,6.00
2018-09-28T02:01:26.390Z,6.00
2018-09-28T02:03:54.843Z,6.00
2018-09-28T02:06:23.307Z,6.00
2018-09-28T02:08:51.762Z,5.90
2018-09-28T02:11:20.218Z,5.90
2018-09-28T02:13:48.705Z,5.90
2018-09-28T02:16:17.166Z,5.90
2018-09-28T02:18:45.612Z,5.90
2018-09-28T02:21:14.075Z,5.80
2018-09-28T02:23:42.523Z,5.80
2018-09-28T02:26:10.966Z,5.70
2018-09-28T02:28:39.420Z,5.80
2018-09-28T02:31:07.890Z,5.90
2018-09-28T02:33:36.350Z,5.90
2018-09-28T02:36:04.826Z,6.10
2018-09-28T02:38:33.342Z,6.00
2018-09-28T02:41:01.850Z,6.10
2018-09-28T02:43:30.314Z,6.00
2018-09-28T02:45:58.779Z,6.00
2018-09-28T02:48:27.227Z,5.90
2018-09-28T02:50:55.679Z,5.90
2018-09-28T02:53:24.122Z,5.90
2018-09-28T02:55:52.571Z,5.90
2018-09-28T02:58:21.018Z,6.00
2018-09-28T03:00:49.476Z,5.90
2018-09-28T03:03:17.917Z,5.90
2018-09-28T03:05:46.403Z,5.80
2018-09-28T03:08:14.855Z,5.90
2018-09-28T03:10:43.298Z,6.00
2018-09-28T03:13:11.739Z,6.00
2018-09-28T03:15:40.180Z,6.10
2018-09-28T03:18:08.701Z,6.10
2018-09-28T03:20:37.142Z,6.00
2018-09-28T03:23:05.603Z,5.90
2018-09-28T03:25:34.131Z,5.80
2018-09-28T03:28:02.590Z,5.80
2018-09-28T03:30:31.179Z,5.80
2018-09-28T03:32:59.671Z,5.70
2018-09-28T03:35:28.159Z,5.70
2018-09-28T03:37:56.639Z,5.60
2018-09-28T03:40:25.154Z,5.60
2018-09-28T03:42:53.563Z,5.60
2018-09-28T03:45:22.010Z,5.50
2018-09-28T03:47:50.762Z,5.50
2018-09-28T03:50:19.268Z,5.50
2018-09-28T03:52:47.718Z,5.50
2018-09-28T03:55:16.163Z,5.50
2018-09-28T03:57:44.611Z,5.50
2018-09-28T04:00:13.109Z,5.50
2018-09-28T04:02:41.563Z,5.50
2018-09-28T04:05:10.040Z,5.50
2018-09-28T04:07:38.503Z,5.50
2018-09-28T04:10:08.299Z,5.50
2018-09-28T04:12:36.747Z,5.50
2018-09-28T04:15:05.615Z,5.50
2018-09-28T04:17:34.122Z,5.50
2018-09-28T04:20:02.722Z,5.40
2018-09-28T04:22:31.175Z,5.40
2018-09-28T04:24:59.724Z,5.40
2018-09-28T04:27:28.198Z,5.50
2018-09-28T04:29:56.666Z,5.50
2018-09-28T04:32:25.147Z,5.50
2018-09-28T04:34:53.594Z,5.60
2018-09-28T04:37:22.046Z,5.50
2018-09-28T04:39:50.514Z,5.50
2018-09-28T04:42:18.969Z,5.50
2018-09-28T04:44:47.538Z,5.50
2018-09-28T04:47:16.003Z,5.50
2018-09-28T04:49:44.451Z,5.50
2018-09-28T04:52:12.906Z,5.40
2018-09-28T04:54:41.366Z,5.40
2018-09-28T04:57:09.810Z,5.40
2018-09-28T04:59:38.277Z,5.40
2018-09-28T05:02:06.725Z,5.40
2018-09-28T05:04:35.214Z,5.40
2018-09-28T05:07:03.658Z,5.60
2018-09-28T05:09:32.178Z,5.60
2018-09-28T05:12:00.626Z,5.70
2018-09-28T05:14:29.070Z,5.70
2018-09-28T05:16:57.516Z,5.70
2018-09-28T05:19:26.012Z,5.70
2018-09-28T05:21:54.442Z,5.70
2018-09-28T05:24:22.895Z,5.70
2018-09-28T05:26:51.378Z,5.80
2018-09-28T05:29:19.822Z,5.80
2018-09-28T05:31:48.428Z,5.80
2018-09-28T05:34:16.750Z,5.80
2018-09-28T05:36:45.293Z,5.90
2018-09-28T05:39:13.754Z,6.10
2018-09-28T05:41:42.240Z,6.20
2018-09-28T05:44:10.697Z,6.20
2018-09-28T05:46:39.160Z,6.30
2018-09-28T05:49:07.623Z,6.30
2018-09-28T05:51:36.096Z,6.40
2018-09-28T05:54:04.566Z,6.50
2018-09-28T05:56:33.102Z,6.60
2018-09-28T05:59:07.074Z,6.60
2018-09-28T06:01:40.886Z,6.80
2018-09-28T06:04:14.650Z,6.90
2018-09-28T06:06:43.150Z,7.00
2018-09-28T06:09:12.477Z,7.10
2018-09-28T06:11:40.971Z,7.30
2018-09-28T06:14:09.945Z,7.40
2018-09-28T06:16:38.502Z,7.50
2018-09-28T06:19:07.025Z,7.60
2018-09-28T06:21:35.478Z,7.60
2018-09-28T06:24:03.959Z,7.80
2018-09-28T06:26:32.463Z,7.90
2018-09-28T06:29:00.934Z,8.00
2018-09-28T06:31:29.394Z,8.10
2018-09-28T06:33:57.858Z,8.20
2018-09-28T06:36:26.375Z,8.30
2018-09-28T06:38:54.842Z,8.30
2018-09-28T06:41:23.461Z,8.40
2018-09-28T06:43:51.927Z,8.50
2018-09-28T06:46:20.370Z,8.60
2018-09-28T06:48:48.826Z,8.80
2018-09-28T06:51:17.412Z,8.90
2018-09-28T06:53:45.839Z,9.00
2018-09-28T06:56:14.288Z,9.20
2018-09-28T06:58:42.731Z,9.30
2018-09-28T07:01:11.206Z,9.50
2018-09-28T07:03:39.663Z,9.60
2018-09-28T07:06:08.157Z,9.80
2018-09-28T07:08:36.618Z,9.90
2018-09-28T07:11:05.327Z,10.10
2018-09-28T07:13:33.846Z,10.30
2018-09-28T07:16:02.302Z,10.40
2018-09-28T07:18:30.766Z,10.50
2018-09-28T07:20:59.326Z,10.70
2018-09-28T07:23:27.789Z,10.80
2018-09-28T07:25:56.494Z,11.00
2018-09-28T07:28:24.994Z,11.10
2018-09-28T07:30:53.470Z,11.30
2018-09-28T07:33:22.446Z,11.40
2018-09-28T07:35:50.932Z,11.50
2018-09-28T07:38:19.389Z,11.70
2018-09-28T07:40:47.867Z,11.70
2018-09-28T07:43:16.343Z,11.80
2018-09-28T07:45:44.849Z,12.00
2018-09-28T07:48:13.355Z,12.10
2018-09-28T07:50:41.809Z,12.20
2018-09-28T07:53:10.254Z,12.40
2018-09-28T07:55:38.746Z,12.50
2018-09-28T07:58:07.332Z,12.60
2018-09-28T08:00:35.892Z,12.70
2018-09-28T08:03:04.358Z,12.90
2018-09-28T08:05:32.882Z,13.00
2018-09-28T08:08:01.320Z,13.10
2018-09-28T08:10:29.782Z,13.20
2018-09-28T08:12:58.255Z,13.30
2018-09-28T08:15:26.724Z,13.40
2018-09-28T08:17:55.211Z,13.50
2018-09-28T08:20:23.708Z,13.70
2018-09-28T08:22:52.267Z,13.80
2018-09-28T08:25:20.728Z,13.90
2018-09-28T08:27:49.175Z,14.00
2018-09-28T08:30:17.669Z,14.10
2018-09-28T08:32:46.138Z,14.20
2018-09-28T08:35:14.622Z,14.30
2018-09-28T08:37:43.063Z,14.50
2018-09-28T08:40:11.671Z,14.50
2018-09-28T08:42:40.130Z,14.70
2018-09-28T08:45:08.696Z,14.80
2018-09-28T08:47:37.158Z,14.90
2018-09-28T08:50:05.766Z,15.00
2018-09-28T08:52:34.233Z,15.10
2018-09-28T08:55:02.760Z,15.20
2018-09-28T08:57:31.241Z,15.30
2018-09-28T08:59:59.710Z,15.50
2018-09-28T09:02:28.243Z,15.60
2018-09-28T09:04:56.709Z,15.70
2018-09-28T09:07:25.199Z,15.80
2018-09-28T09:09:53.674Z,15.90
2018-09-28T09:12:22.141Z,16.00
2018-09-28T09:14:50.599Z,16.00
2018-09-28T09:17:19.054Z,16.10
2018-09-28T09:19:47.527Z,16.20
2018-09-28T09:22:15.995Z,16.30
2018-09-28T09:24:44.454Z,16.40
2018-09-28T09:27:12.913Z,16.50
2018-09-28T09:29:41.379Z,16.60
2018-09-28T09:32:09.834Z,16.60
2018-09-28T09:34:38.284Z,16.80
2018-09-28T09:37:07.110Z,16.90
2018-09-28T09:39:35.567Z,17.00
2018-09-28T09:42:04.023Z,17.10
2018-09-28T09:44:32.548Z,17.10
2018-09-28T09:47:01.001Z,17.30
2018-09-28T09:49:29.582Z,17.40
2018-09-28T09:51:58.051Z,17.50
2018-09-28T09:54:26.509Z,17.50
2018-09-28T09:56:54.965Z,17.70
2018-09-28T09:59:23.458Z,17.70
2018-09-28T10:01:57.221Z,17.80
2018-09-28T10:04:25.666Z,17.80
2018-09-28T10:06:54.110Z,17.90
2018-09-28T10:09:22.566Z,18.00
2018-09-28T10:11:51.027Z,18.10
2018-09-28T10:14:19.490Z,18.10
2018-09-28T10:16:47.970Z,18.20
2018-09-28T10:19:16.451Z,18.30
2018-09-28T10:21:44.919Z,18.40
2018-09-28T10:24:13.374Z,18.40
2018-09-28T10:26:41.823Z,18.60
2018-09-28T10:29:10.302Z,18.70
2018-09-28T10:31:38.758Z,18.70
2018-09-28T10:34:07.254Z,18.70
2018-09-28T10:36:35.708Z,18.80
2018-09-28T10:39:05.082Z,18.90
2018-09-28T10:41:33.554Z,19.00
2018-09-28T10:44:02.131Z,19.10
2018-09-28T10:46:30.708Z,19.10
2018-09-28T10:48:59.135Z,19.20
2018-09-28T10:51:27.713Z,19.20
2018-09-28T10:53:56.054Z,19.30
2018-09-28T10:56:24.534Z,19.30
2018-09-28T10:58:53.116Z,19.40
2018-09-28T11:01:21.599Z,19.40
2018-09-28T11:03:50.246Z,19.40
2018-09-28T11:06:18.627Z,19.40
2018-09-28T11:08:47.127Z,19.40
2018-09-28T11:11:15.598Z,19.50
2018-09-28T11:13:44.060Z,19.60
2018-09-28T11:16:12.581Z,19.70
2018-09-28T11:18:41.051Z,19.70
2018-09-28T11:21:09.557Z,19.70
2018-09-28T11:23:38.194Z,19.70
2018-09-28T11:26:06.806Z,19.80
2018-09-28T11:28:35.250Z,19.90
2018-09-28T11:31:03.720Z,19.90
2018-09-28T11:33:32.269Z,20.00
2018-09-28T11:36:00.802Z,20.00
2018-09-28T11:38:29.255Z,20.10
2018-09-28T11:40:57.719Z,20.20
2018-09-28T11:43:26.195Z,20.30
2018-09-28T11:45:54.722Z,20.10
2018-09-28T11:48:23.165Z,20.10
2018-09-28T11:50:51.638Z,20.20
2018-09-28T11:53:20.091Z,20.20
2018-09-28T11:55:48.570Z,20.20
2018-09-28T11:58:17.018Z,20.20
2018-09-28T12:00:45.481Z,20.20
2018-09-28T12:03:13.956Z,20.20
2018-09-28T12:05:42.430Z,20.40
2018-09-28T12:08:10.875Z,20.40
2018-09-28T12:10:39.334Z,20.30
2018-09-28T12:13:07.797Z,20.40
2018-09-28T12:15:36.313Z,20.50
2018-09-28T12:18:04.768Z,20.60
2018-09-28T12:20:33.280Z,20.70
2018-09-28T12:23:01.759Z,20.70
2018-09-28T12:25:30.217Z,20.70
2018-09-28T12:27:58.666Z,20.80
2018-09-28T12:30:27.166Z,20.80
2018-09-28T12:32:55.621Z,20.80
2018-09-28T12:35:24.102Z,20.80
2018-09-28T12:37:52.586Z,20.80
2018-09-28T12:40:21.156Z,20.80
2018-09-28T12:42:49.692Z,20.90
2018-09-28T12:45:18.218Z,20.90
2018-09-28T12:47:46.669Z,20.80
2018-09-28T12:50:15.141Z,20.80
2018-09-28T12:52:43.679Z,20.90
2018-09-28T12:55:12.263Z,20.90
2018-09-28T12:57:40.742Z,20.90
2018-09-28T13:00:09.465Z,20.90
2018-09-28T13:02:37.993Z,20.90
2018-09-28T13:05:06.551Z,20.90
2018-09-28T13:07:35.031Z,20.90
2018-09-28T13:10:03.687Z,20.80
2018-09-28T13:12:32.192Z,20.90
2018-09-28T13:15:00.777Z,20.90
2018-09-28T13:17:29.131Z,20.80
2018-09-28T13:19:57.594Z,20.80
2018-09-28T13:22:26.058Z,20.80
2018-09-28T13:24:54.556Z,20.80
2018-09-28T13:27:23.000Z,20.80
2018-09-28T13:29:51.470Z,20.80
2018-09-28T13:32:19.940Z,20.80
2018-09-28T13:34:48.395Z,20.80
2018-09-28T13:37:16.872Z,20.80
2018-09-28T13:39:45.349Z,20.70
2018-09-28T13:42:13.858Z,20.70
2018-09-28T13:44:42.322Z,20.70
2018-09-28T13:47:10.783Z,20.70
2018-09-28T13:49:39.254Z,20.70
2018-09-28T13:52:07.761Z,20.80
2018-09-28T13:54:36.257Z,20.70
2018-09-28T13:57:04.819Z,20.70
2018-09-28T13:59:33.314Z,20.70
2018-09-28T14:02:01.779Z,20.80
2018-09-28T14:04:30.261Z,20.70
2018-09-28T14:06:58.890Z,20.70
2018-09-28T14:09:27.223Z,20.70
2018-09-28T14:11:55.679Z,20.70
2018-09-28T14:14:24.223Z,20.70
2018-09-28T14:16:52.610Z,20.70
2018-09-28T14:19:21.066Z,20.60
2018-09-28T14:21:49.528Z,20.60
2018-09-28T14:24:18.000Z,20.70
2018-09-28T14:26:46.554Z,20.70
2018-09-28T14:29:14.978Z,20.70
2018-09-28T14:31:43.438Z,20.60
2018-09-28T14:34:11.921Z,20.70
2018-09-28T14:36:40.447Z,20.60
2018-09-28T14:39:09.763Z,20.50
2018-09-28T14:41:38.249Z,20.60
2018-09-28T14:44:06.932Z,20.50
2018-09-28T14:46:35.426Z,20.50
2018-09-28T14:49:04.021Z,20.50
2018-09-28T14:51:32.801Z,20.40
2018-09-28T14:54:01.398Z,20.40
2018-09-28T14:56:29.874Z,20.30
2018-09-28T14:58:58.294Z,20.30
2018-09-28T15:01:26.924Z,20.30
2018-09-28T15:03:55.267Z,20.20
2018-09-28T15:06:23.815Z,20.20
2018-09-28T15:08:52.201Z,20.10
2018-09-28T15:11:20.693Z,20.10
2018-09-28T15:13:49.139Z,20.00
2018-09-28T15:16:17.647Z,19.90
2018-09-28T15:18:46.193Z,19.90
2018-09-28T15:21:14.606Z,19.80
2018-09-28T15:23:43.045Z,19.70
2018-09-28T15:26:11.507Z,19.60
2018-09-28T15:28:39.965Z,19.60
2018-09-28T15:31:08.574Z,19.50
2018-09-28T15:33:37.046Z,19.40
2018-09-28T15:36:05.579Z,19.40
2018-09-28T15:38:34.138Z,19.30
2018-09-28T15:41:03.742Z,19.20
2018-09-28T15:43:33.239Z,19.20
2018-09-28T15:46:01.777Z,19.00
2018-09-28T15:48:30.334Z,19.00
2018-09-28T15:50:58.790Z,18.90
2018-09-28T15:53:27.263Z,18.80
2018-09-28T15:55:55.768Z,18.70
2018-09-28T15:58:24.211Z,18.60
2018-09-28T16:00:52.715Z,18.50
2018-09-28T16:03:21.175Z,18.30
2018-09-28T16:05:49.695Z,18.10
2018-09-28T16:08:18.150Z,18.00
2018-09-28T16:10:46.610Z,17.80
2018-09-28T16:13:15.097Z,17.60
2018-09-28T16:15:43.558Z,17.30
2018-09-28T16:18:12.019Z,17.10
2018-09-28T16:20:40.495Z,16.90
2018-09-28T16:23:08.963Z,16.70
2018-09-28T16:25:37.441Z,16.60
2018-09-28T16:28:05.930Z,16.40
2018-09-28T16:30:34.439Z,16.20
2018-09-28T16:33:02.933Z,16.10
2018-09-28T16:35:31.444Z,16.00
2018-09-28T16:37:59.898Z,15.90
2018-09-28T16:40:28.371Z,15.70
2018-09-28T16:42:56.860Z,15.50
2018-09-28T16:45:25.315Z,15.50
2018-09-28T16:47:53.770Z,15.40
2018-09-28T16:50:22.251Z,15.40
2018-09-28T16:52:50.842Z,15.30
2018-09-28T16:55:19.327Z,15.20
2018-09-28T16:57:48.049Z,15.00
2018-09-28T17:00:16.502Z,14.90
2018-09-28T17:02:44.961Z,14.80
2018-09-28T17:05:13.426Z,14.70
2018-09-28T17:07:41.902Z,14.60
2018-09-28T17:10:10.522Z,14.60
2018-09-28T17:12:38.975Z,14.70
2018-09-28T17:15:07.558Z,14.50
2018-09-28T17:17:36.014Z,14.40
2018-09-28T17:20:05.161Z,14.30
2018-09-28T17:22:33.694Z,14.30
2018-09-28T17:25:02.186Z,14.30
2018-09-28T17:27:30.659Z,14.20
2018-09-28T17:29:59.171Z,14.10
2018-09-28T17:32:27.687Z,14.00
2018-09-28T17:34:56.211Z,13.80
2018-09-28T17:37:24.678Z,13.70
2018-09-28T17:39:53.154Z,13.50
2018-09-28T17:42:21.618Z,13.40
2018-09-28T17:44:50.085Z,13.30
2018-09-28T17:47:18.882Z,13.20
2018-09-28T17:49:47.517Z,13.20
2018-09-28T17:52:16.022Z,13.20
2018-09-28T17:54:44.491Z,13.10
2018-09-28T17:57:12.942Z,13.00
2018-09-28T17:59:41.868Z,13.00
2018-09-28T18:02:10.558Z,12.90
2018-09-28T18:04:39.435Z,12.80
2018-09-28T18:07:07.890Z,12.70
2018-09-28T18:09:36.366Z,12.60
2018-09-28T18:12:04.830Z,12.50
2018-09-28T18:14:33.386Z,12.40
2018-09-28T18:17:01.847Z,12.30
2018-09-28T18:19:30.313Z,12.30
2018-09-28T18:21:58.847Z,12.30
2018-09-28T18:24:27.320Z,12.20
2018-09-28T18:26:55.875Z,12.20
2018-09-28T18:29:24.516Z,12.20
2018-09-28T18:31:52.966Z,12.20
2018-09-28T18:34:21.418Z,12.20
2018-09-28T18:36:49.901Z,12.10
2018-09-28T18:39:18.368Z,12.10
2018-09-28T18:41:46.850Z,12.10
2018-09-28T18:44:15.307Z,12.10
2018-09-28T18:46:44.332Z,12.00
2018-09-28T18:49:13.805Z,11.90
2018-09-28T18:51:42.379Z,11.90
2018-09-28T18:54:11.665Z,11.80
2018-09-28T18:56:40.132Z,11.70
2018-09-28T18:59:08.984Z,11.70
2018-09-28T19:01:37.524Z,11.70
2018-09-28T19:04:06.059Z,11.70
2018-09-28T19:06:34.684Z,11.60
2018-09-28T19:09:04.079Z,11.60
2018-09-28T19:11:33.118Z,11.70
2018-09-28T19:14:01.892Z,11.70
2018-09-28T19:16:30.698Z,11.70
2018-09-28T19:18:59.947Z,11.60
2018-09-28T19:21:29.106Z,11.60
2018-09-28T19:23:57.646Z,11.60
2018-09-28T19:26:26.101Z,11.50
2018-09-28T19:28:55.449Z,11.50
2018-09-28T19:31:24.617Z,11.50
2018-09-28T19:33:53.166Z,11.60
2018-09-28T19:36:22.604Z,11.60
2018-09-28T19:38:51.094Z,11.60
2018-09-28T19:41:20.296Z,11.60
2018-09-28T19:43:48.826Z,11.70
2018-09-28T19:46:17.866Z,11.60
2018-09-28T19:48:47.225Z,11.60
2018-09-28T19:51:15.955Z,11.60
2018-09-28T19:53:44.411Z,11.60
2018-09-28T19:56:12.906Z,11.60
2018-09-28T19:58:41.404Z,11.50
2018-09-28T20:01:09.878Z,11.50
2018-09-28T20:03:38.345Z,11.60
2018-09-28T20:06:07.083Z,11.60
2018-09-28T20:08:35.574Z,11.60
2018-09-28T20:11:04.031Z,11.70
2018-09-28T20:13:32.547Z,11.70
2018-09-28T20:16:01.027Z,11.60
2018-09-28T20:18:29.513Z,11.50
2018-09-28T20:20:58.051Z,11.50
2018-09-28T20:23:26.537Z,11.50
2018-09-28T20:25:55.023Z,11.50
2018-09-28T20:28:23.478Z,11.40
2018-09-28T20:30:51.958Z,11.40
2018-09-28T20:33:20.798Z,11.40
2018-09-28T20:35:49.291Z,11.40
2018-09-28T20:38:17.797Z,11.30
2018-09-28T20:40:47.116Z,11.20
2018-09-28T20:43:15.574Z,11.30
2018-09-28T20:45:44.031Z,11.30
2018-09-28T20:48:12.525Z,11.40
2018-09-28T20:50:40.983Z,11.50
2018-09-28T20:53:09.435Z,11.50
2018-09-28T20:55:37.986Z,11.40
2018-09-28T20:58:06.639Z,11.30
2018-09-28T21:00:35.095Z,11.20
2018-09-28T21:03:03.555Z,11.10
2018-09-28T21:05:32.082Z,11.00
2018-09-28T21:08:00.623Z,11.00
2018-09-28T21:10:29.078Z,10.90
2018-09-28T21:12:57.531Z,10.90
2018-09-28T21:15:26.031Z,10.80
2018-09-28T21:17:54.500Z,10.80
2018-09-28T21:20:22.970Z,10.90
2018-09-28T21:22:51.680Z,10.90
2018-09-28T21:25:20.175Z,11.00
2018-09-28T21:27:48.629Z,11.10
2018-09-28T21:30:17.114Z,11.20
2018-09-28T21:32:45.583Z,11.30
2018-09-28T21:35:14.066Z,11.40
2018-09-28T21:37:42.531Z,11.30
2018-09-28T21:40:10.994Z,11.30
2018-09-28T21:42:39.455Z,11.20
2018-09-28T21:45:07.951Z,11.00
2018-09-28T21:47:36.528Z,10.90
2018-09-28T21:50:05.030Z,10.80
2018-09-28T21:52:33.545Z,10.80
2018-09-28T21:55:02.004Z,10.80
2018-09-28T21:57:30.466Z,10.70
2018-09-28T21:59:58.923Z,10.80
2018-09-28T22:02:27.403Z,10.80
2018-09-28T22:04:55.870Z,10.70
2018-09-28T22:07:24.331Z,10.80
2018-09-28T22:09:52.811Z,10.80
2018-09-28T22:12:21.290Z,10.70
2018-09-28T22:14:49.778Z,10.70
2018-09-28T22:17:18.242Z,10.60
2018-09-28T22:19:46.735Z,10.60
2018-09-28T22:22:15.209Z,10.50
2018-09-28T22:24:43.670Z,10.50
2018-09-28T22:27:12.123Z,10.50
2018-09-28T22:29:40.621Z,10.60
2018-09-28T22:32:09.106Z,10.50
2018-09-28T22:34:37.558Z,10.60
2018-09-28T22:37:06.059Z,10.70
2018-09-28T22:39:34.518Z,10.70
2018-09-28T22:42:02.967Z,10.80
2018-09-28T22:44:31.422Z,10.80
2018-09-28T22:46:59.874Z,10.90
2018-09-28T22:49:28.339Z,10.90
2018-09-28T22:51:56.802Z,11.00
2018-09-28T22:54:25.263Z,11.00
2018-09-28T22:56:53.718Z,11.10
2018-09-28T22:59:22.173Z,11.10
2018-09-28T23:01:50.653Z,11.10
2018-09-28T23:04:19.127Z,11.10
2018-09-28T23:06:47.599Z,11.20
2018-09-28T23:09:16.066Z,11.20
2018-09-28T23:11:44.532Z,11.20
2018-09-28T23:14:13.023Z,11.30
2018-09-28T23:16:41.479Z,11.30
2018-09-28T23:19:09.949Z,11.30
2018-09-28T23:21:38.465Z,11.40
2018-09-28T23:24:07.118Z,11.40
2018-09-28T23:26:35.639Z,11.40
2018-09-28T23:29:04.139Z,11.40
2018-09-28T23:31:32.626Z,11.50
2018-09-28T23:34:01.087Z,11.60
2018-09-28T23:36:29.541Z,11.70
2018-09-28T23:38:58.002Z,11.70
2018-09-28T23:41:26.462Z,11.80
2018-09-28T23:43:54.922Z,11.70
2018-09-28T23:46:23.378Z,11.70
2018-09-28T23:48:51.835Z,11.70
2018-09-28T23:51:20.286Z,11.80
2018-09-28T23:53:48.747Z,11.80
2018-09-28T23:56:17.214Z,11.80
2018-09-28T23:58:45.675Z,11.80
